KHFY

Indy South Greenwood Airport

Indianapolis, Indiana, USA
METAR KHFY 161415Z AUTO 20009KT 10SM CLR 02/M01 A3003 RMK AO2 T00211015
Observed Flight Rules
Dec-16 @ 14:15 UTC (33 minutes ago) Visual Flight Rules
Wind Visibility Clouds
200° at 9 knots 10 miles
  • Clear skies
Temperatures Readings
Current 2°C / 36°F
Dewpoint -2°C / 28°F
Humidity 75%
Altimeter 30.03" Hg
Pressure 1017 hPa
Elevation 251
METAR KHFY 161415Z AUTO 20009KT 10SM CLR 02/M01 A3003 RMK AO2 T00211015
Observed Flight Rules
Dec-16 @ 14:15 UTC
(33 minutes ago)
VFR
Wind Visibility
200° at 9 knots 10 miles
Clouds
  • Clear skies
Temperature Dewpoint
2°C / 36°F -2°C / 28°F
Humidity Altimeter Pressure
75% 30.03" Hg 1017 hPa